Time;durP1;ratioP1;P1;durP2;ratioP2;P2;SDS_P1;SDS_P2;PMS_P1;PMS_P2;Temp;Humidity;BMP_temperature;BMP_pressure;BME280_temperature;BME280_humidity;BME280_pressure;Samples;Min_cycle;Max_cycle;Signal;HPM_P1;HPM_P2
2021/07/12 00:00:19;;;;;;;14.30;4.75;;;;;;;21.33;51.74;93835.78;5089600;28;20081;-68
2021/07/12 00:02:45;;;;;;;9.55;5.43;;;;;;;21.32;51.62;93836.94;5089590;28;20115;-69
2021/07/12 00:05:12;;;;;;;11.80;4.97;;;;;;;21.33;52.24;93843.91;5089535;28;20467;-68
2021/07/12 00:07:38;;;;;;;13.20;5.50;;;;;;;21.33;52.17;93833.06;5089733;28;20020;-68
2021/07/12 00:10:06;;;;;;;10.23;5.15;;;;;;;21.27;52.04;93831.88;5089936;28;20470;-68
2021/07/12 00:12:31;;;;;;;11.43;5.22;;;;;;;21.20;52.58;93839.97;5088593;28;20395;-68
2021/07/12 00:14:57;;;;;;;12.05;5.85;;;;;;;21.13;52.09;93837.25;5089815;28;20020;-68
2021/07/12 00:17:22;;;;;;;14.10;5.68;;;;;;;21.10;51.88;93843.41;5089347;28;20111;-68
2021/07/12 00:19:47;;;;;;;11.13;5.50;;;;;;;21.08;52.31;93840.31;5089770;28;20020;-69
2021/07/12 00:22:13;;;;;;;14.80;5.32;;;;;;;21.06;52.50;93843.41;5089325;28;20024;-68
2021/07/12 00:24:38;;;;;;;10.20;5.50;;;;;;;21.00;52.78;93834.88;5089449;28;20028;-68
2021/07/12 00:27:04;;;;;;;8.48;4.88;;;;;;;20.98;52.44;93850.69;5089626;28;20028;-68
2021/07/12 00:29:29;;;;;;;8.93;4.90;;;;;;;20.93;52.81;93842.94;5089453;28;20107;-68
2021/07/12 00:31:55;;;;;;;11.05;5.35;;;;;;;20.90;53.10;93851.06;5084845;28;20082;-68
2021/07/12 00:34:21;;;;;;;11.23;5.35;;;;;;;20.83;53.54;93846.38;5088082;28;20536;-68
2021/07/12 00:36:48;;;;;;;7.88;5.80;;;;;;;20.80;54.00;93863.38;5071296;28;20023;-68
2021/07/12 00:39:13;;;;;;;10.02;5.22;;;;;;;20.77;54.04;93856.00;5089727;28;20034;-68
2021/07/12 00:41:38;;;;;;;7.47;4.95;;;;;;;20.72;53.84;93865.28;5089175;28;20415;-68
2021/07/12 00:44:05;;;;;;;12.35;5.65;;;;;;;20.61;54.06;93857.06;5071567;28;20024;-68
2021/07/12 00:46:31;;;;;;;8.40;4.97;;;;;;;20.58;53.50;93860.53;5089312;28;20028;-68
2021/07/12 00:48:56;;;;;;;8.50;6.30;;;;;;;20.56;53.32;93856.63;5089216;28;20146;-68
2021/07/12 00:51:22;;;;;;;7.75;5.10;;;;;;;20.50;54.06;93858.91;5089241;28;20051;-68
2021/07/12 00:53:49;;;;;;;9.38;5.10;;;;;;;20.49;54.26;93846.50;5091379;28;20498;-68
2021/07/12 00:56:15;;;;;;;8.05;4.88;;;;;;;20.49;54.47;93853.84;5093093;28;20074;-68
2021/07/12 00:58:40;;;;;;;10.05;5.68;;;;;;;20.43;53.65;93837.97;5074622;28;20047;-68
2021/07/12 01:01:06;;;;;;;9.20;5.53;;;;;;;20.43;52.63;93851.53;5093165;28;20024;-68
2021/07/12 01:03:32;;;;;;;10.60;5.22;;;;;;;20.40;53.18;93854.19;5092728;28;20471;-69
2021/07/12 01:05:58;;;;;;;9.48;6.07;;;;;;;20.37;53.79;93852.22;5074423;28;20035;-68
2021/07/12 01:08:24;;;;;;;10.77;5.93;;;;;;;20.34;54.11;93850.28;5092745;28;20027;-68
2021/07/12 01:11:01;;;;;;;10.38;5.35;;;;;;;20.35;54.27;93843.69;5092615;28;20024;-68
2021/07/12 01:13:36;;;;;;;7.40;4.45;;;;;;;20.32;54.05;93847.94;5071616;28;20032;-68
2021/07/12 01:16:39;;;;;;;9.15;4.53;;;;;;;20.32;53.80;93858.00;5092459;28;20027;-68
2021/07/12 01:19:25;;;;;;;7.28;4.97;;;;;;;20.24;53.54;93849.03;5092555;28;20768;-68
2021/07/12 01:22:21;;;;;;;7.28;4.90;;;;;;;20.20;52.78;93848.22;5092341;28;20036;-69
2021/07/12 01:25:18;;;;;;;9.07;5.47;;;;;;;20.15;52.70;93851.28;5092557;28;20483;-68
2021/07/12 01:27:49;;;;;;;8.00;5.25;;;;;;;20.12;53.11;93855.50;5086637;28;20111;-68
2021/07/12 01:30:17;;;;;;;7.53;5.10;;;;;;;20.12;53.63;93852.81;5074430;28;20035;-67
2021/07/12 01:32:45;;;;;;;8.00;4.82;;;;;;;20.15;53.29;93851.28;5092383;28;20043;-67
2021/07/12 01:35:25;;;;;;;11.57;5.63;;;;;;;20.16;53.26;93859.03;5090165;28;20027;-67
2021/07/12 01:38:22;;;;;;;8.82;5.55;;;;;;;20.18;53.48;93848.59;5073375;28;20024;-67
2021/07/12 01:41:07;;;;;;;8.32;5.60;;;;;;;20.13;53.72;93848.97;5067626;28;20054;-68
2021/07/12 01:43:46;;;;;;;7.40;4.60;;;;;;;20.12;53.52;93855.50;5092303;28;20100;-67
2021/07/12 01:46:47;;;;;;;10.95;5.00;;;;;;;20.10;53.40;93854.34;5092205;28;20486;-67
2021/07/12 01:49:34;;;;;;;8.57;5.18;;;;;;;20.12;53.84;93852.03;5091993;28;20024;-67
2021/07/12 01:52:14;;;;;;;8.68;5.03;;;;;;;20.05;53.80;93847.34;5091593;28;20048;-67
2021/07/12 01:55:07;;;;;;;9.70;5.35;;;;;;;20.06;53.73;93853.53;5091886;28;20548;-67
2021/07/12 01:57:40;;;;;;;10.80;5.50;;;;;;;20.04;54.41;93857.38;5073496;28;20390;-67
2021/07/12 02:00:10;;;;;;;10.40;5.82;;;;;;;20.04;54.36;93865.47;5090517;28;20395;-67
2021/07/12 02:02:39;;;;;;;8.35;5.20;;;;;;;20.02;54.36;93858.91;5091466;28;20020;-67
2021/07/12 02:05:16;;;;;;;11.25;5.68;;;;;;;19.98;54.09;93858.84;5090088;28;20024;-67
2021/07/12 02:07:43;;;;;;;13.98;4.70;;;;;;;19.94;54.05;93862.69;5091354;28;20038;-67
2021/07/12 02:10:09;;;;;;;12.95;5.03;;;;;;;19.89;54.31;93855.69;5073315;28;20020;-68
2021/07/12 02:12:35;;;;;;;9.48;5.95;;;;;;;19.87;54.40;93865.34;5091348;28;20019;-69
2021/07/12 02:15:06;;;;;;;10.43;6.05;;;;;;;19.90;54.43;93870.00;5091472;28;20031;-68
2021/07/12 02:17:32;;;;;;;14.50;5.60;;;;;;;19.86;54.94;93871.88;5091098;28;20038;-68
2021/07/12 02:19:59;;;;;;;9.65;5.40;;;;;;;19.82;54.96;93864.53;5091467;28;20024;-68
2021/07/12 02:22:27;;;;;;;10.23;5.90;;;;;;;19.79;55.41;93859.84;5091233;28;20076;-68
2021/07/12 02:24:55;;;;;;;10.13;5.05;;;;;;;19.76;55.41;93867.91;5091098;28;20023;-69
2021/07/12 02:27:22;;;;;;;13.05;6.10;;;;;;;19.74;55.93;93875.63;5091225;28;20072;-69
2021/07/12 02:29:49;;;;;;;9.93;5.68;;;;;;;19.73;55.84;93874.84;5091076;28;20028;-69
2021/07/12 02:32:16;;;;;;;12.00;5.93;;;;;;;19.72;55.99;93873.31;5090984;28;20050;-69
2021/07/12 02:34:42;;;;;;;8.55;4.95;;;;;;;19.72;55.95;93873.31;5072707;28;20119;-69
2021/07/12 02:37:07;;;;;;;10.82;5.93;;;;;;;19.71;56.10;93871.75;5091202;28;20566;-67
2021/07/12 02:39:34;;;;;;;8.45;4.93;;;;;;;19.70;56.18;93872.88;5090885;28;20403;-68
2021/07/12 02:42:02;;;;;;;17.52;5.47;;;;;;;19.70;56.23;93872.88;5090815;28;20074;-67
2021/07/12 02:44:30;;;;;;;9.32;6.03;;;;;;;19.68;56.19;93872.44;5091067;28;20114;-67
2021/07/12 02:46:57;;;;;;;7.32;5.30;;;;;;;19.64;56.37;93882.44;5090772;28;20020;-67
2021/07/12 02:49:23;;;;;;;9.02;5.80;;;;;;;19.61;56.71;93865.03;5090868;28;20027;-67
2021/07/12 02:51:55;;;;;;;8.18;4.93;;;;;;;19.58;56.87;93868.50;5090460;28;20079;-67
2021/07/12 02:54:27;;;;;;;11.75;6.15;;;;;;;19.54;56.55;93872.28;5090748;28;20432;-67
2021/07/12 02:56:52;;;;;;;10.60;5.97;;;;;;;19.51;56.86;93867.63;5090472;28;20023;-67
2021/07/12 02:59:18;;;;;;;8.43;5.70;;;;;;;19.48;57.22;93874.56;5090868;28;20016;-67
2021/07/12 03:01:44;;;;;;;13.90;6.10;;;;;;;19.46;57.37;93860.63;5090301;28;20085;-68
2021/07/12 03:04:09;;;;;;;12.38;5.80;;;;;;;19.44;57.44;93863.69;5090693;28;20020;-68
2021/07/12 03:06:34;;;;;;;8.57;5.53;;;;;;;19.42;58.06;93854.41;5087041;28;20108;-69
2021/07/12 03:09:09;;;;;;;8.63;5.80;;;;;;;19.38;57.90;93857.06;5090537;28;20046;-70
2021/07/12 03:11:47;;;;;;;10.05;5.78;;;;;;;19.34;57.91;93861.66;5090396;28;20099;-70
2021/07/12 03:14:13;;;;;;;10.23;5.97;;;;;;;19.33;58.19;93865.47;5090445;28;20377;-70
2021/07/12 03:16:39;;;;;;;12.13;5.95;;;;;;;19.35;58.63;93865.13;5071790;28;20039;-69
2021/07/12 03:19:10;;;;;;;9.30;5.93;;;;;;;19.33;58.68;93870.88;5072478;28;20032;-67
2021/07/12 03:21:40;;;;;;;10.07;5.20;;;;;;;19.30;58.13;93868.94;5090674;28;20032;-67
2021/07/12 03:24:07;;;;;;;9.68;5.80;;;;;;;19.28;57.89;93876.63;5090479;28;20028;-67
2021/07/12 03:26:33;;;;;;;14.68;5.68;;;;;;;19.28;57.87;93870.47;5089963;28;20054;-67
2021/07/12 03:28:59;;;;;;;10.23;6.00;;;;;;;19.27;57.53;93871.59;5090300;28;20085;-68
2021/07/12 03:31:27;;;;;;;10.45;5.97;;;;;;;19.27;58.41;93877.00;5090106;28;20455;-68
2021/07/12 03:33:55;;;;;;;11.32;5.55;;;;;;;19.31;57.87;93864.31;5089972;28;20028;-68
2021/07/12 03:36:21;;;;;;;12.90;5.47;;;;;;;19.35;57.37;93870.53;5089940;28;20516;-69
2021/07/12 03:38:48;;;;;;;10.95;6.53;;;;;;;19.39;58.13;93871.34;5089976;28;20026;-68
2021/07/12 03:41:15;;;;;;;7.82;5.72;;;;;;;19.42;58.65;93870.63;5090213;28;20077;-69
2021/07/12 03:43:41;;;;;;;8.90;6.35;;;;;;;19.45;57.93;93876.06;5071734;28;20020;-68
2021/07/12 03:46:07;;;;;;;15.27;5.78;;;;;;;19.50;57.93;93872.25;5090199;28;20046;-68
2021/07/12 03:48:46;;;;;;;11.13;5.93;;;;;;;19.56;57.80;93873.50;5089890;28;20020;-68
2021/07/12 03:51:41;;;;;;;9.55;5.45;;;;;;;19.53;57.32;93878.84;5089930;28;21720;-68
2021/07/12 03:54:07;;;;;;;8.40;5.15;;;;;;;19.53;57.30;93881.56;5055143;28;20078;-68
2021/07/12 03:56:33;;;;;;;11.20;5.72;;;;;;;19.52;57.88;93882.69;5089701;28;20031;-68
2021/07/12 03:58:59;;;;;;;13.52;6.85;;;;;;;19.61;57.81;93878.56;5089779;28;20059;-68
2021/07/12 04:01:24;;;;;;;10.73;5.88;;;;;;;19.63;57.61;93867.38;5089593;28;20070;-68
2021/07/12 04:03:51;;;;;;;11.93;5.95;;;;;;;19.59;57.70;93875.44;5089691;28;20074;-68
2021/07/12 04:06:17;;;;;;;8.32;5.97;;;;;;;19.58;57.62;93890.13;5089740;28;20111;-68
2021/07/12 04:08:42;;;;;;;10.23;6.10;;;;;;;19.63;57.68;93881.66;5089538;28;20083;-68
2021/07/12 04:11:09;;;;;;;13.32;6.80;;;;;;;19.68;57.81;93888.66;5089820;28;20402;-68
2021/07/12 04:13:35;;;;;;;10.80;6.57;;;;;;;19.69;58.28;93887.53;5070103;28;20472;-68
2021/07/12 04:16:00;;;;;;;10.38;6.05;;;;;;;19.69;58.27;93884.03;5069317;28;20024;-68
2021/07/12 04:18:26;;;;;;;13.00;6.97;;;;;;;19.70;58.58;93891.78;5089463;28;20137;-68
2021/07/12 04:20:51;;;;;;;13.13;6.53;;;;;;;19.74;58.69;93887.22;5089674;28;20024;-68
2021/07/12 04:23:16;;;;;;;9.27;5.63;;;;;;;19.77;58.78;93896.53;5089468;28;20023;-68
2021/07/12 04:25:42;;;;;;;10.18;6.85;;;;;;;19.78;58.39;93898.06;5089203;28;20422;-68
2021/07/12 04:28:07;;;;;;;8.88;6.72;;;;;;;19.79;58.47;93892.28;5090899;28;20028;-67
2021/07/12 04:30:34;;;;;;;16.50;7.20;;;;;;;19.77;58.36;93900.00;5093163;28;20020;-67
2021/07/12 04:32:59;;;;;;;12.52;7.03;;;;;;;19.88;57.92;93904.75;5075087;28;20024;-67
2021/07/12 04:35:25;;;;;;;30.48;8.88;;;;;;;19.90;58.33;93905.16;5093325;28;20129;-66
2021/07/12 04:37:51;;;;;;;27.55;7.82;;;;;;;19.88;58.19;93896.63;5093037;28;20069;-67
2021/07/12 04:40:16;;;;;;;14.05;7.78;;;;;;;19.94;58.87;93903.25;5074876;28;20027;-67
2021/07/12 04:42:42;;;;;;;26.17;8.13;;;;;;;20.00;57.29;93899.06;5093120;28;20107;-67
2021/07/12 04:45:08;;;;;;;19.95;7.68;;;;;;;19.95;57.94;93902.91;5093173;28;20082;-67
2021/07/12 04:47:34;;;;;;;14.75;9.25;;;;;;;20.02;58.09;93894.06;5074719;28;20494;-68
2021/07/12 04:50:00;;;;;;;18.23;7.88;;;;;;;20.08;57.35;93895.28;5074896;28;20139;-67
2021/07/12 04:52:25;;;;;;;12.27;8.25;;;;;;;20.14;57.10;93888.38;5092785;28;20175;-67
2021/07/12 04:54:51;;;;;;;11.32;7.85;;;;;;;20.23;56.80;93890.75;5092668;28;20028;-69
2021/07/12 04:57:16;;;;;;;18.23;7.72;;;;;;;20.28;57.72;93892.38;5092959;28;20445;-69
2021/07/12 04:59:42;;;;;;;13.32;7.72;;;;;;;20.36;57.44;93889.34;5092700;28;20441;-67
2021/07/12 05:02:09;;;;;;;34.28;9.05;;;;;;;20.35;57.52;93901.34;5093080;28;20098;-68
2021/07/12 05:04:38;;;;;;;17.42;7.82;;;;;;;20.44;57.38;93895.59;5092726;28;20023;-68
2021/07/12 05:07:05;;;;;;;20.50;8.60;;;;;;;20.52;56.76;93891.78;5092517;28;20028;-68
2021/07/12 05:09:31;;;;;;;29.75;10.15;;;;;;;20.53;57.00;93893.34;5092550;28;20027;-68
2021/07/12 05:11:57;;;;;;;14.10;8.52;;;;;;;20.55;56.96;93896.44;5073089;28;20035;-69
2021/07/12 05:14:24;;;;;;;24.92;8.02;;;;;;;20.58;57.30;93895.75;5092564;28;20402;-69
2021/07/12 05:16:53;;;;;;;11.25;7.97;;;;;;;20.64;56.40;93899.66;5088676;28;20085;-69
2021/07/12 05:19:18;;;;;;;21.35;8.80;;;;;;;20.67;56.58;93902.75;5092376;28;20098;-69
2021/07/12 05:21:44;;;;;;;18.80;8.48;;;;;;;20.69;56.82;93903.94;5073532;28;20483;-69
2021/07/12 05:24:10;;;;;;;15.38;8.77;;;;;;;20.72;56.97;93905.91;5092396;28;20076;-69
2021/07/12 05:26:35;;;;;;;15.25;8.82;;;;;;;20.77;56.74;93897.41;5090742;28;20036;-69
2021/07/12 05:29:01;;;;;;;22.13;8.75;;;;;;;20.81;56.82;93898.22;5092063;28;20035;-69
2021/07/12 05:31:27;;;;;;;20.05;9.35;;;;;;;20.87;56.69;93909.47;5092232;28;20026;-69
2021/07/12 05:33:52;;;;;;;12.85;8.10;;;;;;;20.95;55.43;93899.47;5092128;28;20044;-69
2021/07/12 05:36:18;;;;;;;16.58;7.45;;;;;;;21.02;55.09;93903.00;5092197;28;20059;-69
2021/07/12 05:38:43;;;;;;;27.98;8.73;;;;;;;21.08;55.18;93897.97;5073143;28;20526;-69
2021/07/12 05:41:08;;;;;;;18.65;8.68;;;;;;;21.17;55.67;93895.72;5089716;28;20032;-69
2021/07/12 05:43:34;;;;;;;19.20;9.23;;;;;;;21.27;56.08;93902.38;5088835;28;20032;-70
2021/07/12 05:46:00;;;;;;;14.70;8.55;;;;;;;21.38;55.07;93905.88;5091814;28;20403;-69
2021/07/12 05:48:25;;;;;;;14.35;8.77;;;;;;;21.46;54.38;93895.88;5073698;28;20409;-70
2021/07/12 05:50:51;;;;;;;23.05;8.38;;;;;;;21.52;54.15;93902.50;5091596;28;20380;-69
2021/07/12 05:53:17;;;;;;;15.15;8.48;;;;;;;21.56;54.21;93899.81;5092214;28;20035;-69
2021/07/12 05:55:42;;;;;;;18.63;8.38;;;;;;;21.63;54.44;93899.81;5091891;28;20402;-69
2021/07/12 05:58:08;;;;;;;15.80;8.60;;;;;;;21.67;54.34;93906.03;5073315;28;20558;-69
2021/07/12 06:00:33;;;;;;;14.15;7.95;;;;;;;21.70;54.27;93908.00;5091743;28;20463;-69
2021/07/12 06:02:58;;;;;;;16.30;8.52;;;;;;;21.75;54.01;93904.88;5091129;28;20107;-69
2021/07/12 06:05:24;;;;;;;21.88;10.05;;;;;;;21.76;53.99;93901.03;5091238;28;20028;-69
2021/07/12 06:07:49;;;;;;;14.27;8.05;;;;;;;21.81;54.25;93906.06;5091438;28;20040;-68
2021/07/12 06:10:15;;;;;;;14.43;8.95;;;;;;;21.97;54.17;93915.81;5091153;28;20039;-68
2021/07/12 06:12:41;;;;;;;21.60;10.43;;;;;;;21.88;54.07;93907.25;5091163;28;20036;-68
2021/07/12 06:15:08;;;;;;;17.40;8.60;;;;;;;22.04;54.45;93918.53;5090858;28;20077;-69
2021/07/12 06:17:34;;;;;;;16.83;8.32;;;;;;;22.18;53.49;93918.56;5090916;28;20016;-69
2021/07/12 06:19:59;;;;;;;22.58;8.93;;;;;;;22.24;52.79;93908.91;5090860;28;20035;-69
2021/07/12 06:22:25;;;;;;;22.90;8.38;;;;;;;22.27;52.86;93907.38;5090943;28;20028;-68
2021/07/12 06:24:51;;;;;;;16.95;8.20;;;;;;;22.30;53.15;93919.38;5090842;28;20027;-69
2021/07/12 06:27:16;;;;;;;23.25;8.20;;;;;;;22.34;52.82;93917.47;5090587;28;20066;-69
2021/07/12 06:29:42;;;;;;;23.77;8.35;;;;;;;22.34;53.27;93906.59;5090918;28;20024;-69
2021/07/12 06:32:08;;;;;;;15.63;9.23;;;;;;;22.41;52.90;93928.34;5090360;28;20039;-70
2021/07/12 06:34:33;;;;;;;24.42;8.05;;;;;;;22.49;54.00;93912.81;5090507;28;20368;-67
2021/07/12 06:36:59;;;;;;;17.92;7.82;;;;;;;22.66;54.13;93917.47;5090452;28;20107;-67
2021/07/12 06:39:24;;;;;;;14.30;9.10;;;;;;;22.79;53.08;93912.41;5072212;28;20036;-67
2021/07/12 06:41:49;;;;;;;17.08;7.97;;;;;;;22.82;52.69;93906.97;5090486;28;20024;-67
2021/07/12 06:44:15;;;;;;;16.35;9.40;;;;;;;22.95;51.98;93925.59;5089665;28;20133;-65
2021/07/12 06:46:40;;;;;;;16.65;8.55;;;;;;;23.01;51.78;93922.13;5072237;28;20030;-65
2021/07/12 06:49:06;;;;;;;21.73;8.95;;;;;;;23.11;51.54;93919.78;5090139;28;20035;-65
2021/07/12 06:51:31;;;;;;;14.85;8.60;;;;;;;23.24;51.07;93912.75;5089501;28;20050;-65
2021/07/12 06:53:57;;;;;;;16.23;8.68;;;;;;;23.19;50.89;93905.00;5089983;28;20131;-65
2021/07/12 06:56:23;;;;;;;16.63;7.82;;;;;;;23.24;50.95;93912.75;5089833;28;20044;-65
2021/07/12 06:58:48;;;;;;;22.90;9.48;;;;;;;23.35;50.57;93912.75;5071627;28;20467;-63
2021/07/12 07:01:14;;;;;;;16.63;8.13;;;;;;;23.41;50.57;93895.63;5089898;28;20035;-65
2021/07/12 07:03:39;;;;;;;18.20;8.32;;;;;;;23.56;50.90;93903.72;5071506;28;20072;-69
2021/07/12 07:06:05;;;;;;;27.52;9.57;;;;;;;23.69;49.87;93904.06;5071401;28;20020;-70
2021/07/12 07:08:31;;;;;;;22.27;9.32;;;;;;;23.73;49.82;93905.59;5090104;28;20031;-68
2021/07/12 07:10:56;;;;;;;19.02;8.52;;;;;;;23.73;49.72;93908.31;5071761;28;20533;-68
2021/07/12 07:13:24;;;;;;;19.33;8.80;;;;;;;23.80;49.57;93913.75;5089645;28;20098;-68
2021/07/12 07:15:50;;;;;;;15.65;8.07;;;;;;;23.80;50.10;93911.03;5090018;28;20020;-67
2021/07/12 07:18:15;;;;;;;23.83;9.35;;;;;;;23.83;50.19;93910.25;5089925;28;20023;-67
2021/07/12 07:20:42;;;;;;;21.88;8.70;;;;;;;23.91;49.95;93908.25;5089820;28;20032;-69
2021/07/12 07:23:08;;;;;;;18.45;7.55;;;;;;;23.97;50.22;93905.91;5069178;28;20028;-68
2021/07/12 07:25:33;;;;;;;15.98;8.18;;;;;;;24.15;49.57;93908.53;5089481;28;20050;-68
2021/07/12 07:27:59;;;;;;;17.15;8.55;;;;;;;24.31;49.22;93918.94;5090129;28;20459;-68
2021/07/12 07:30:25;;;;;;;12.13;7.35;;;;;;;24.49;47.46;93913.34;5071520;28;20514;-67
2021/07/12 07:32:50;;;;;;;12.35;7.50;;;;;;;24.41;46.91;93909.91;5089705;28;20105;-69
2021/07/12 07:35:18;;;;;;;26.45;7.45;;;;;;;24.56;46.91;93913.31;5089695;28;20145;-69
2021/07/12 07:37:46;;;;;;;11.88;7.10;;;;;;;24.68;47.08;93903.88;5089464;28;20020;-67
2021/07/12 07:40:13;;;;;;;16.33;7.25;;;;;;;24.78;47.15;93908.47;5090214;28;20024;-68
2021/07/12 07:42:38;;;;;;;17.92;7.32;;;;;;;24.96;47.02;93906.38;5089568;28;20471;-68
2021/07/12 07:45:05;;;;;;;16.30;7.03;;;;;;;25.12;44.90;93902.34;5089634;28;20035;-70
2021/07/12 07:47:31;;;;;;;19.45;7.25;;;;;;;25.24;43.07;93904.56;5089816;28;20065;-70
2021/07/12 07:49:56;;;;;;;17.80;6.50;;;;;;;25.33;43.05;93904.84;5089630;28;20024;-67
2021/07/12 07:52:22;;;;;;;16.73;6.97;;;;;;;25.49;43.20;93903.53;5071397;28;20415;-67
2021/07/12 07:54:47;;;;;;;10.73;6.78;;;;;;;25.55;43.63;93910.84;5089574;28;20024;-69
2021/07/12 07:57:13;;;;;;;15.00;6.75;;;;;;;25.60;43.72;93907.69;5089869;28;20020;-69
2021/07/12 07:59:38;;;;;;;13.18;6.53;;;;;;;25.72;42.22;93903.63;5089777;28;20028;-68
2021/07/12 08:02:03;;;;;;;10.30;6.68;;;;;;;25.70;41.30;93905.97;5090742;28;20020;-67
2021/07/12 08:04:29;;;;;;;13.48;6.68;;;;;;;25.80;41.53;93899.63;5092618;28;20484;-69
2021/07/12 08:06:55;;;;;;;17.05;6.93;;;;;;;25.88;41.00;93897.56;5093272;28;20531;-67
2021/07/12 08:09:21;;;;;;;14.52;5.72;;;;;;;25.82;40.84;93912.88;5093755;28;20034;-67
2021/07/12 08:11:48;;;;;;;13.80;7.35;;;;;;;25.89;39.88;93898.34;5093657;28;20027;-71
2021/07/12 08:14:14;;;;;;;11.10;5.70;;;;;;;25.94;39.38;93900.66;5093413;28;20058;-71
2021/07/12 08:16:40;;;;;;;11.77;5.40;;;;;;;25.98;39.37;93896.69;5093916;28;20501;-70
2021/07/12 08:19:05;;;;;;;11.85;5.50;;;;;;;26.00;39.99;93899.78;5092184;28;20032;-69
2021/07/12 08:21:31;;;;;;;11.30;6.22;;;;;;;26.11;39.09;93901.59;5093618;28;20112;-69
2021/07/12 08:23:56;;;;;;;7.93;5.63;;;;;;;26.21;38.96;93893.25;5091952;28;20034;-72
2021/07/12 08:26:22;;;;;;;17.33;6.13;;;;;;;26.30;39.19;93894.72;5074888;28;20111;-69
2021/07/12 08:28:47;;;;;;;20.45;5.97;;;;;;;26.43;38.04;93898.41;5093650;28;20027;-69
2021/07/12 08:31:13;;;;;;;15.45;5.65;;;;;;;26.59;35.94;93898.56;5093236;28;20031;-70
2021/07/12 08:33:39;;;;;;;12.27;5.15;;;;;;;26.73;35.08;93902.28;5093419;28;20028;-69
2021/07/12 08:36:05;;;;;;;12.25;5.53;;;;;;;26.90;35.91;93898.44;5093030;28;20016;-69
2021/07/12 08:38:31;;;;;;;15.55;5.85;;;;;;;26.98;35.95;93888.94;5092944;28;20085;-68
2021/07/12 08:40:56;;;;;;;14.68;5.57;;;;;;;27.05;34.44;93892.72;5093271;28;20027;-69
2021/07/12 08:43:23;;;;;;;17.35;6.18;;;;;;;27.07;35.45;93893.09;5092979;28;20028;-70
2021/07/12 08:45:48;;;;;;;11.80;5.60;;;;;;;27.13;35.46;93899.63;5093010;28;20048;-70
2021/07/12 08:48:15;;;;;;;11.50;5.43;;;;;;;27.25;35.23;93899.03;5092946;28;20093;-69
2021/07/12 08:50:41;;;;;;;13.35;5.45;;;;;;;27.27;34.21;93895.88;5074411;28;20024;-69
2021/07/12 08:53:07;;;;;;;14.30;6.32;;;;;;;27.31;34.22;93900.09;5092665;28;20028;-69
2021/07/12 08:55:32;;;;;;;10.68;4.93;;;;;;;27.37;32.52;93898.41;5072251;28;20042;-69
2021/07/12 08:58:20;;;;;;;13.25;5.20;;;;;;;27.50;31.86;93897.78;5093080;28;20036;-72
2021/07/12 09:00:53;;;;;;;10.57;5.28;;;;;;;27.57;32.19;93897.66;5074172;28;20399;-73
2021/07/12 09:03:31;;;;;;;10.77;5.25;;;;;;;27.72;32.32;93903.63;5092946;28;20103;-73
2021/07/12 09:06:15;;;;;;;17.75;5.57;;;;;;;27.76;31.36;93896.91;5092305;28;20124;-72
2021/07/12 09:08:54;;;;;;;15.63;5.38;;;;;;;27.87;31.71;93904.16;5074145;28;20039;-72
2021/07/12 09:11:36;;;;;;;13.23;5.10;;;;;;;27.94;31.86;93895.75;5092856;28;20028;-72
2021/07/12 09:14:10;;;;;;;11.90;5.00;;;;;;;28.06;32.23;93903.31;5073157;28;20466;-73
2021/07/12 09:16:39;;;;;;;9.77;5.15;;;;;;;28.10;32.08;93895.03;5092833;28;20115;-72
2021/07/12 09:19:06;;;;;;;9.25;4.60;;;;;;;28.17;31.46;93898.41;5091608;28;20028;-72
2021/07/12 09:21:34;;;;;;;13.63;5.00;;;;;;;28.28;31.58;93889.16;5091731;28;20149;-72
2021/07/12 09:24:22;;;;;;;19.80;4.88;;;;;;;28.33;30.96;93885.91;5070454;28;20503;-73
2021/07/12 09:27:11;;;;;;;7.72;5.18;;;;;;;28.40;31.52;93891.25;5091978;28;20052;-73
2021/07/12 09:29:40;;;;;;;19.05;5.43;;;;;;;28.44;31.88;93896.66;5072394;28;20044;-73
2021/07/12 09:32:12;;;;;;;9.30;4.97;;;;;;;28.53;31.67;93892.13;5091336;28;20376;-72
2021/07/12 09:34:38;;;;;;;10.05;5.90;;;;;;;28.50;32.52;93898.47;5091620;28;20526;-71
2021/07/12 09:37:06;;;;;;;12.63;5.13;;;;;;;28.52;32.20;93895.31;5089086;28;20048;-72
2021/07/12 09:39:35;;;;;;;7.95;4.72;;;;;;;28.56;32.72;93902.25;5073196;28;20084;-72
2021/07/12 09:42:14;;;;;;;16.70;5.22;;;;;;;28.68;32.22;93895.31;5091490;28;20390;-72
2021/07/12 09:44:43;;;;;;;8.38;4.93;;;;;;;28.75;31.08;93897.09;5071650;28;20020;-72
2021/07/12 09:47:19;;;;;;;7.55;5.05;;;;;;;28.85;30.50;93896.06;5091918;28;20032;-73
2021/07/12 09:49:45;;;;;;;10.25;4.90;;;;;;;28.85;29.46;93896.06;5091061;28;20119;-72
2021/07/12 09:52:17;;;;;;;8.93;4.93;;;;;;;28.90;30.33;93892.81;5091049;28;20096;-73
2021/07/12 09:54:44;;;;;;;9.35;4.70;;;;;;;28.99;30.59;93889.47;5090990;28;20024;-73
2021/07/12 09:57:21;;;;;;;10.90;4.50;;;;;;;29.08;29.40;93902.56;5091038;28;20494;-73
2021/07/12 10:00:04;;;;;;;9.60;5.00;;;;;;;29.03;29.70;93901.13;5090639;28;20483;-73
2021/07/12 10:02:33;;;;;;;8.10;4.50;;;;;;;29.01;30.22;93893.31;5090782;28;20081;-73
2021/07/12 10:05:04;;;;;;;8.43;4.55;;;;;;;29.03;30.79;93900.34;5072307;28;20043;-73
2021/07/12 10:07:30;;;;;;;13.57;4.35;;;;;;;29.12;30.96;93903.25;5072483;28;20403;-73
2021/07/12 10:09:57;;;;;;;9.70;5.00;;;;;;;29.19;31.04;93906.59;5071974;28;20027;-73
2021/07/12 10:12:23;;;;;;;13.82;4.85;;;;;;;29.31;30.52;93896.88;5090546;28;20050;-73
2021/07/12 10:14:48;;;;;;;9.38;4.45;;;;;;;29.46;30.10;93902.00;5090367;28;20028;-73
2021/07/12 10:17:14;;;;;;;6.68;4.25;;;;;;;29.58;29.01;93896.53;5090700;28;20020;-73
2021/07/12 10:19:43;;;;;;;13.05;5.18;;;;;;;29.52;27.98;93883.78;5090680;28;20108;-73
2021/07/12 10:22:11;;;;;;;8.85;4.43;;;;;;;29.53;28.97;93888.06;5090054;28;20073;-73
2021/07/12 10:24:46;;;;;;;16.25;4.75;;;;;;;29.60;28.46;93888.63;5072014;28;20087;-73
2021/07/12 10:27:22;;;;;;;18.73;4.90;;;;;;;29.70;27.35;93877.81;5089495;28;20479;-73
2021/07/12 10:29:47;;;;;;;6.47;4.15;;;;;;;29.57;26.67;93877.75;5069479;28;20380;-72
2021/07/12 10:32:15;;;;;;;9.60;4.60;;;;;;;29.55;27.50;93878.19;5090024;28;20046;-73
2021/07/12 10:34:43;;;;;;;8.23;4.53;;;;;;;29.64;28.04;93874.81;5090229;28;20088;-73
2021/07/12 10:37:41;;;;;;;13.25;4.43;;;;;;;29.80;27.51;93874.78;5089927;28;20080;-73
2021/07/12 10:40:20;;;;;;;15.05;4.18;;;;;;;29.89;24.91;93863.13;5071327;28;20032;-73
2021/07/12 10:42:51;;;;;;;15.25;4.50;;;;;;;29.91;25.83;93868.94;5089354;28;20119;-73
2021/07/12 10:45:25;;;;;;;13.85;4.03;;;;;;;29.94;26.16;93864.56;5070468;28;20031;-73
2021/07/12 10:48:12;;;;;;;9.32;4.60;;;;;;;30.06;26.77;93858.31;5070664;28;20067;-73
2021/07/12 10:50:48;;;;;;;12.45;4.80;;;;;;;30.26;26.98;93866.34;5069420;28;20051;-73
2021/07/12 10:53:14;;;;;;;10.00;5.28;;;;;;;30.23;26.36;93860.97;5071610;28;20034;-73
2021/07/12 10:56:03;;;;;;;7.38;4.68;;;;;;;30.05;26.70;93865.03;5070578;28;20020;-73
2021/07/12 10:58:32;;;;;;;7.22;5.07;;;;;;;30.19;28.00;93855.56;5087759;28;20039;-73
2021/07/12 11:01:07;;;;;;;7.35;4.63;;;;;;;30.24;27.24;93863.25;5088412;28;20073;-72
2021/07/12 11:03:44;;;;;;;15.95;5.90;;;;;;;30.33;27.30;93865.41;5089581;28;20448;-73
2021/07/12 11:06:13;;;;;;;6.95;4.90;;;;;;;30.36;27.32;93859.00;5089398;28;20666;-72
2021/07/12 11:08:52;;;;;;;10.07;4.60;;;;;;;30.29;28.08;93864.72;5089681;28;20039;-72
2021/07/12 11:11:20;;;;;;;20.63;4.95;;;;;;;30.27;28.13;93867.13;5088314;28;20028;-71
2021/07/12 11:13:53;;;;;;;7.93;4.50;;;;;;;30.32;28.09;93866.59;5089620;28;20442;-72
2021/07/12 11:16:23;;;;;;;12.93;4.60;;;;;;;30.51;28.68;93862.06;5089636;28;20020;-72
2021/07/12 11:18:50;;;;;;;7.00;4.65;;;;;;;30.62;27.93;93864.50;5089674;28;20039;-73
2021/07/12 11:21:34;;;;;;;11.00;4.75;;;;;;;30.59;28.21;93872.41;5089723;28;20501;-73
2021/07/12 11:24:25;;;;;;;8.75;4.55;;;;;;;30.69;29.10;93867.75;5089333;28;20020;-74
2021/07/12 11:26:50;;;;;;;20.48;4.93;;;;;;;30.79;28.88;93857.63;5088345;28;20040;-73
2021/07/12 11:29:28;;;;;;;9.25;5.28;;;;;;;30.93;27.96;93856.41;5090942;28;20031;-72
2021/07/12 11:32:06;;;;;;;14.73;5.22;;;;;;;31.05;27.87;93863.09;5090249;28;20119;-72
2021/07/12 11:34:38;;;;;;;8.13;4.25;;;;;;;31.12;26.74;93851.84;5089286;28;20056;-72